Visit other weathersites:

Galway City Weather

Moycullen Weather

Waterford City Weather

Charlestown Weather

Clevedon Weather



Nearby METAR Reports

   
EBAW - Antwerp
Updated: 18-10-2017 15:20
Clear  
Clear  
   Wind: SSW 9.3 km/h
Wind: SSW 9.3 km/h
Temperature: 21°C
Dew Point: 14°C
Humidity: 64%
Barometer: 1011 hPa
Visibility: More than 10 km
Cloud details: Clear
EBAW 181420Z 20005KT 170V260 CAVOK 21/14 Q1011 NOSIG
EBLG - Li├Ęge
Updated: 18-10-2017 15:20
Few Clouds  
Few Clouds  
   Wind: SW 14.8 km/h
Wind: SW 14.8 km/h
Temperature: 20°C
Dew Point: 12°C
Humidity: 60%
Barometer: 1012 hPa
Clouds: Few Clouds
Visibility: More than 10 km
Cloud details: Few Clouds 975.4 m
EBLG 181420Z 22008KT 9999 FEW032 20/12 Q1012 NOSIG
EBCV - Mons/Bergen
Updated: 18-10-2017 15:25
Clear  
Clear  
   Wind: SW 13 km/h
Wind: SW 13 km/h
Temperature: 20°C
Dew Point: 14°C
Humidity: 69%
Barometer: 1012 hPa
Clouds: Clear
Visibility: More than 10 km
Cloud details: Clear
EBCV 181425Z AUTO 22007KT 9999 NCD 20/14 Q1012 BLU
EHBK - Maastricht
Updated: 18-10-2017 15:25
Mostly Cloudy  
Mostly Cloudy  
   Wind: SW 16.7 km/h
Wind: SW 16.7 km/h
Temperature: 21°C
Dew Point: 14°C
Humidity: 64%
Barometer: 1012 hPa
Clouds: Mostly Cloudy
Visibility: More than 10 km
Cloud details: Mostly Cloudy 1036.3 m
EHBK 181425Z AUTO 23009KT 200V280 9999 BKN034 21/14 Q1012 NOSIG
ELLX - Luxemburg
Updated: 18-10-2017 15:20
Clear  
Clear  
   Wind: South 13 km/h
Wind: South 13 km/h
Temperature: 18°C
Dew Point: 11°C
Humidity: 64%
Barometer: 1014 hPa
Visibility: More than 10 km
Cloud details: Clear
ELLX 181420Z 18007KT 140V210 CAVOK 18/11 Q1014 NOSIG
EBOS - Oostende
Updated: 18-10-2017 15:20
Partly Cloudy  
Partly Cloudy  
   Wind: South 11.1 km/h
Wind: South 11.1 km/h
Temperature: 17°C
Dew Point: 13°C
Humidity: 77%
Barometer: 1012 hPa
Clouds: Partly Cloudy
Visibility: 7 km
Cloud details: Partly Cloudy
EBOS 181420Z 19006KT 7000 NSC 17/13 Q1012 NOSIG

Script developed by  Saratoga-weather.org Adapted for the template by  Weerstation Leuven

You find our weather info also at:

UK Metoffice

European Weather Network

Weather Underground

Equipment we use:

Weather-station
Davis Vantage Vue

Weather-program
Weather Display

Weather-server
Dell 3050 Micro Desktop

Provider
RS Hosting

Davis Vantage Vue

Weather Display

Dell 3050 Micro Desktop

RS Hosting